Tiempo atmosférico en la estación meteorológica de Colunga, Asturias (35 m.)



Fecha
DESCASC
Temp. máxima en grados centígrados (hora)
DESCASC
Temp. mínima en grados centígrados (hora)
DESCASC
Temp. media en grados centígrados
DESCASC
Racha de viento máxima en m/sg (hora)
DESCASC
Velocidad máxima media en intervalos de 10 minutos(hora)
DESCASC
Precipitaciones diarias en mm
DESCASC
Precipitaciones de 00:00 a 06:00 en mm
DESCASC
Precipitaciones de 06:00 a 12:00 en mm
DESCASC
Precipitaciones de 12:00 a 18:00 en mm
DESCASC
Precipitaciones de 18:00 a 24:00 en mm
DESCASC
10-11-2019 12.1 (11:10) 7.7 (00:00) 9.9 10 (07:00) 5 (07:10) 24.4 4 10.6 8.2 1.6
09-11-2019 17.1 (12:10) 8.6 (00:00) 12.9 14.17 (13:50) 7.22 (13:50) 21 0.2 2 4.2 14.6
08-11-2019 12.9 (13:20) 7.4 (00:00) 10.1 14.72 (13:50) 6.94 (01:40) 40.4 10 15 9.6 5.8
07-11-2019 13.3 (12:20) 6.8 (00:00) 10.1 13.33 (15:50) 6.39 (12:30) 17 6.4 2.2 4.8 3.6
06-11-2019 17.8 (15:00) 10.9 (00:00) 14.3 10.28 (22:40) 5.56 (22:40) 9.2 4.4 0.4 0.4 4
05-11-2019 14.2 (16:20) 10.6 (00:00) 12.4 15 (12:30) 6.39 (07:00) 43 0.2 15.6 8.8 18.4
04-11-2019 19.5 (05:30) 10.9 (00:00) 15.2 14.72 (05:30) 6.39 (13:40) 0.8 0 0.8 0 0
03-11-2019 20.7 (22:40) 10.8 (00:00) 15.8 21.94 (03:10) 10 (02:10) 13.6 8.2 5.2 0 0.2
02-11-2019 19 (12:00) 13.8 (00:00) 16.4 8.61 (17:10) 3.33 (00:30) 0.2 0 0 0 0.2
01-11-2019 24.4 (16:30) 15.6 (00:00) 20 7.78 (13:00) 4.17 (13:40) 5 0.6 0 4.2 0.2
31-10-2019 19.9 (14:30) 16 (07:40) 17.9 4.72 (17:00) 2.78 (23:50) 2.4 0.4 0 0 2
30-10-2019 21 (14:20) 13.9 (00:00) 17.4 5.28 (09:20) 3.06 (09:50) 4 0 0.2 0.2 3.6
29-10-2019 21.2 (13:00) 14.3 (00:00) 17.8 6.94 (20:10) 4.44 (20:10) 0 0 0 0 0
28-10-2019 21.4 (12:00) 11.7 (00:00) 16.5 4.44 (00:30) 2.78 (05:20) 0 0 0 0 0
27-10-2019 20.1 (14:10) 12.6 (00:00) 16.4 5 (23:50) 3.61 (23:50) 0 0 0 0 0
26-10-2019 21.7 (12:50) 8.6 (00:00) 15.2 4.72 (07:50) 3.33 (13:00) 0 0 0 0 0
25-10-2019 18.5 (14:50) 10 (00:00) 14.3 3.89 (16:10) 2.5 (15:10) 0 0 0 0 0
24-10-2019 20 (15:20) 12.2 (00:00) 16.1 9.72 (12:10) 4.72 (08:40) -- -- -- 0 0
23-10-2019 15.2 (01:30) 11.3 (00:00) 13.3 11.67 (12:50) 4.72 (12:50) -- -- -- -- --
22-10-2019 15.8 (16:10) 8 (00:00) 11.9 9.17 (23:30) 4.44 (23:40) -- -- -- -- --
21-10-2019 15.3 (15:30) 9.1 (00:00) 12.2 5.56 (06:10) 3.33 (06:10) -- -- -- -- --
20-10-2019 14 (16:40) 10.3 (00:00) 12.2 6.67 (18:40) 3.61 (05:50) -- -- -- -- --
19-10-2019 14.3 (00:00) 11.8 (00:00) 13.1 5.56 (20:50) 2.5 (20:40) -- -- -- -- --
18-10-2019 18.3 (13:30) 13.5 (00:00) 15.9 3.89 (08:50) 2.5 (23:59) -- -- -- -- --
17-10-2019 18.5 (16:40) 14.4 (00:00) 16.4 6.39 (12:20) 3.61 (12:20) -- -- -- -- --
16-10-2019 20.8 (14:50) 12.4 (00:00) 16.6 6.39 (11:10) 3.33 (11:10) 0 0 0 0 0
15-10-2019 21.1 (13:50) 12.5 (00:00) 16.8 7.78 (00:10) 3.61 (01:50) 0 0 0 0 0
14-10-2019 16.7 (15:10) 11.3 (00:00) 14 9.72 (17:00) 5 (17:00) 0 0 0 0 0

Gráficas

Temp. máximas Temp. mínimas Temp. medias Precipitaciones Rachas de viento máximas Velocidades máximas media en intervalos de 10 minutos

Datos horarios

Fecha y hora oficial Temperatura (ºC) Velocidad del viento (km/h) Dirección del viento Racha (km/h) Dirección de racha Precipitación (mm) Presión (hPa) Tendencia (hPa) Humedad (%)
2019-11-12 23:00:00 11.4 10 Este 21 Este 1 -- -- 100
2019-11-12 22:00:00 11.3 10 Este 20 Este 1.2 -- -- 99
2019-11-12 21:00:00 11.5 11 Este 19 Este 1.6 -- -- 99
2019-11-12 20:00:00 11.3 9 Este 20 Este 1.8 -- -- 97
2019-11-12 19:00:00 11.2 13 Este 30 Este 2.4 -- -- 97
2019-11-12 18:00:00 11.7 15 Este 26 Este 2.8 -- -- 95
2019-11-12 17:00:00 12.1 9 Este 19 Este 3.4 -- -- 91
2019-11-12 16:00:00 12.8 4 Nordeste 7 Nordeste 0.8 -- -- 89
2019-11-12 15:00:00 13.7 3 Norte 11 Oeste 0 -- -- 80
2019-11-12 14:00:00 14.4 5 Oeste 14 Sudoeste 0 -- -- 70
2019-11-12 13:00:00 15.2 6 Oeste 22 Sudoeste 0 -- -- 66
2019-11-12 12:00:00 14.4 10 Sudoeste 22 Sudoeste 0 -- -- 68
2019-11-12 11:00:00 13 10 Sudoeste 26 Sudoeste 0 -- -- 73
2019-11-12 10:00:00 11.9 12 Sudoeste 22 Sudoeste 0 -- -- 75
2019-11-12 09:00:00 11.1 10 Sudoeste 21 Sudoeste 0 -- -- 76
2019-11-12 08:00:00 10.7 9 Sudoeste 21 Sudoeste 0 -- -- 78
2019-11-12 07:00:00 10.2 10 Oeste 18 Oeste 0 -- -- 83
2019-11-12 06:00:00 9.7 9 Oeste 16 Oeste 0.6 -- -- 88
2019-11-12 05:00:00 10.1 10 Sudoeste 21 Sudoeste 0.2 -- -- 83
2019-11-12 04:00:00 10.6 11 Sudoeste 23 Sudoeste 0 -- -- 79
2019-11-12 03:00:00 10.7 10 Sudoeste 22 Oeste 0 -- -- 79
2019-11-12 02:00:00 10.4 10 Oeste 23 Sudoeste 0 -- -- 82
2019-11-12 01:00:00 10.2 12 Sudoeste 22 Oeste 0 -- -- 86
2019-11-12 00:00:00 9.8 9 Sudoeste 18 Oeste 0.4 -- -- 89
2019-11-11 23:00:00 10.5 12 Oeste 19 Oeste 0 -- -- 84
2019-11-11 22:00:00 10.4 10 Oeste 18 Oeste 0 -- -- 86
2019-11-11 21:00:00 10.2 10 Oeste 17 Oeste 0 -- -- 88
2019-11-11 20:00:00 10.5 8 Oeste 15 Oeste 0 -- -- 90
2019-11-11 19:00:00 10.7 6 Sudoeste 12 Oeste 0.6 -- -- 92
2019-11-11 18:00:00 11.4 6 Sudoeste 10 Oeste 0 -- -- 90
2019-11-11 17:00:00 12.2 3 Sur 24 Norte 0 -- -- 82
2019-11-11 16:00:00 12.7 10 Sudoeste 15 Sudoeste 0 -- -- 89
2019-11-11 15:00:00 12.1 7 Sudoeste 18 Sudoeste 0.4 -- -- 86
2019-11-11 14:00:00 13 7 Sudoeste 24 Sudoeste 0 -- -- 82
2019-11-11 13:00:00 13.9 8 Sudoeste 18 Sudoeste 0 -- -- 68
2019-11-11 12:00:00 13.5 7 Sur 27 Oeste 0 -- -- 74
2019-11-11 11:00:00 13.8 12 Oeste 28 Sudoeste 0 -- -- 78
2019-11-11 10:00:00 13.7 11 Sudoeste 39 Oeste 0.2 -- -- 88
2019-11-11 09:00:00 14 15 Sudoeste 37 Oeste 1.4 -- -- 95
2019-11-11 08:00:00 13.3 13 Sudoeste 29 Oeste 0 -- -- 95
2019-11-11 07:00:00 12.7 15 Oeste 30 Oeste 0.2 -- -- 94
2019-11-11 06:00:00 11.9 13 Oeste 22 Sudoeste 0 -- -- 89
2019-11-11 05:00:00 11.9 9 Oeste 17 Sudoeste 0 -- -- 80
2019-11-11 04:00:00 10.9 9 Oeste 15 Sudoeste 0 -- -- 83
2019-11-11 03:00:00 10.6 7 Oeste 13 Sudoeste 0 -- -- 83
2019-11-11 02:00:00 10.6 8 Oeste 16 Oeste 0 -- -- 80
2019-11-11 01:00:00 10.4 8 Oeste 15 Sudoeste 0 -- -- 81
2019-11-11 00:00:00 10.2 10 Sudoeste 21 Oeste 0 -- -- 82
2019-11-10 23:00:00 9.6 12 Oeste 24 Sudoeste 0 -- -- 84
2019-11-10 22:00:00 9.2 10 Oeste 19 Oeste 0 -- -- 89
2019-11-10 21:00:00 9.3 12 Oeste 23 Oeste 0.2 -- -- 91
2019-11-10 20:00:00 9.3 13 Oeste 22 Oeste 0.8 -- -- 93
2019-11-10 19:00:00 9.6 12 Sudoeste 23 Oeste 0.6 -- -- 93
2019-11-10 18:00:00 9.4 11 Oeste 26 Oeste 2.2 -- -- 94
2019-11-10 17:00:00 9.7 11 Sudoeste 19 Sudoeste 0.2 -- -- 93
2019-11-10 16:00:00 9.4 9 Oeste 36 Oeste 1 -- -- 93
2019-11-10 15:00:00 10.7 12 Sudoeste 25 Oeste 0 -- -- 90
2019-11-10 14:00:00 9.8 6 Sudoeste 35 Oeste 2.6 -- -- 89
2019-11-10 13:00:00 10.9 7 Nordeste 31 Nordeste 2.2 -- -- 86
2019-11-10 12:00:00 10.3 6 Sudoeste 29 Oeste 2 -- -- 87
2019-11-10 11:00:00 11.9 14 Sudoeste 32 Sudoeste 0.8 -- -- 80
2019-11-10 10:00:00 9.9 13 Sudoeste 31 Sudoeste 3.2 -- -- 91
2019-11-10 09:00:00 9 10 Sudoeste 29 Oeste 1.8 -- -- 93
2019-11-10 08:00:00 8.8 12 Sudoeste 32 Oeste 2.4 -- -- 90
2019-11-10 07:00:00 9 16 Sudoeste 36 Sudoeste 0.4 -- -- 88
2019-11-10 06:00:00 8.6 15 Oeste 29 Sudoeste 0.2 -- -- 91
2019-11-10 05:00:00 8.2 16 Sudoeste 26 Oeste 0.2 -- -- 93
2019-11-10 04:00:00 8 15 Oeste 33 Oeste 0.6 -- -- 93
2019-11-10 03:00:00 8.1 16 Oeste 31 Oeste 3 -- -- 90
2019-11-10 02:00:00 8.8 12 Oeste 23 Oeste 0 -- -- 91
2019-11-10 01:00:00 8.7 11 Oeste 22 Sudoeste 0 -- -- 92
2019-11-10 00:00:00 9 15 Oeste 36 Oeste 0.6 -- -- 94
2019-11-09 23:00:00 8.8 9 Sudoeste 29 Oeste 2 -- -- 93
2019-11-09 22:00:00 9.3 11 Sudoeste 28 Sudoeste 1.8 -- -- 94
2019-11-09 21:00:00 10.1 18 Sudoeste 31 Sudoeste 1 -- -- 89
2019-11-09 20:00:00 10.5 13 Sudoeste 37 Oeste 2 -- -- 92
2019-11-09 19:00:00 10.8 12 Noroeste 33 Sudoeste 7.2 -- -- 93
2019-11-09 18:00:00 11.3 13 Oeste 36 Sudoeste 3.8 -- -- 90
2019-11-09 17:00:00 13.2 15 Oeste 42 Oeste 0.4 -- -- 80
2019-11-09 16:00:00 13.5 19 Oeste 48 Oeste 0 -- -- 79
2019-11-09 15:00:00 14.8 17 Oeste 43 Oeste 0 -- -- 78
2019-11-09 14:00:00 14 25 Oeste 51 Oeste 0 -- -- 85
2019-11-09 13:00:00 17.1 17 Oeste 39 Sudoeste 0 -- -- 70
2019-11-09 12:00:00 16.8 19 Oeste 48 Sudoeste 0 -- -- 69
2019-11-09 11:00:00 14.9 15 Sudoeste 30 Sudoeste 0 -- -- 80
2019-11-09 10:00:00 10.8 8 Oeste 17 Sudoeste 0 -- -- 95
2019-11-09 09:00:00 10 7 Oeste 23 Sudoeste 1 -- -- 92
2019-11-09 08:00:00 10.6 13 Oeste 24 Oeste 1 -- -- 82
2019-11-09 07:00:00 11.3 9 Oeste 18 Oeste 0 -- -- 73
2019-11-09 06:00:00 11.3 11 Oeste 20 Sudoeste 0.2 -- -- 72
2019-11-09 05:00:00 11.1 8 Sudoeste 21 Sudoeste 0 -- -- 73
2019-11-09 04:00:00 11 9 Sudoeste 18 Sudoeste 0 -- -- 75
2019-11-09 03:00:00 10.7 9 Oeste 21 Oeste 0 -- -- 78
2019-11-09 02:00:00 10.3 9 Oeste 24 Sudoeste 0 -- -- 82
2019-11-09 01:00:00 9.7 12 Oeste 23 Oeste 0 -- -- 90
2019-11-09 00:00:00 9.1 12 Sudoeste 23 Sudoeste 1.4 -- -- 94
2019-11-08 23:00:00 9.4 13 Oeste 27 Sudoeste 0.4 -- -- 93
2019-11-08 22:00:00 9.4 10 Sudoeste 26 Sudoeste 0.4 -- -- 94
2019-11-08 21:00:00 9.4 12 Sudoeste 25 Sudoeste 0.8 -- -- 95
2019-11-08 20:00:00 9.4 12 Sudoeste 29 Sudoeste 1 -- -- 95
2019-11-08 19:00:00 9.4 12 Sudoeste 30 Oeste 1.8 -- -- 93
2019-11-08 18:00:00 9.9 13 Oeste 27 Noroeste 3.6 -- -- 92
2019-11-08 17:00:00 9.6 12 Oeste 36 Oeste 1.8 -- -- 91
2019-11-08 16:00:00 11 11 Sudoeste 41 Oeste 1.6 -- -- 90
2019-11-08 15:00:00 12.2 16 Sudoeste 40 Sudoeste 0.2 -- -- 81
2019-11-08 14:00:00 11 12 Sudoeste 53 Sudoeste 0.8 -- -- 84
2019-11-08 13:00:00 11.7 14 Oeste 49 Sudoeste 1.6 -- -- 81
2019-11-08 12:00:00 10.5 16 Oeste 35 Oeste 0.4 -- -- 87
2019-11-08 11:00:00 9.5 13 Sudoeste 40 Oeste 4 -- -- 92
2019-11-08 10:00:00 9 16 Sudoeste 36 Sudoeste 1.8 -- -- 90
2019-11-08 09:00:00 8.4 16 Sudoeste 31 Sudoeste 5.2 -- -- 91
2019-11-08 08:00:00 8.6 19 Sudoeste 44 Sudoeste 1.4 -- -- 88
2019-11-08 07:00:00 8.2 19 Sudoeste 34 Sudoeste 2.2 -- -- 90
2019-11-08 06:00:00 8.1 15 Sudoeste 46 Sudoeste 1.2 -- -- 90
2019-11-08 05:00:00 7.5 16 Sudoeste 41 Sudoeste 4.2 -- -- 91
2019-11-08 04:00:00 8.2 19 Sudoeste 47 Sudoeste 0.2 -- -- 87
2019-11-08 03:00:00 7.7 20 Sudoeste 41 Sudoeste 1.4 -- -- 88
2019-11-08 02:00:00 7.5 18 Sudoeste 49 Sudoeste 1 -- -- 86
2019-11-08 01:00:00 8.2 19 Sudoeste 35 Sudoeste 2 -- -- 85
2019-11-08 00:00:00 8.2 15 Sudoeste 32 Sudoeste 1 -- -- 82
2019-11-07 23:00:00 8.4 16 Sudoeste 41 Sudoeste 0.4 -- -- 78
2019-11-07 22:00:00 8.3 16 Sudoeste 43 Oeste 0.2 -- -- 78
2019-11-07 21:00:00 7.8 18 Sudoeste 39 Sudoeste 0.8 -- -- 82
2019-11-07 20:00:00 7.7 17 Sudoeste 43 Sudoeste 0.8 -- -- 83
2019-11-07 19:00:00 7.9 20 Sudoeste 43 Oeste 0.4 -- -- 82
2019-11-07 18:00:00 6.8 12 Sudoeste 39 Oeste 2.4 -- -- 88
2019-11-07 17:00:00 9.4 19 Oeste 45 Oeste 0.2 -- -- 71
2019-11-07 16:00:00 10.5 22 Sudoeste 48 Oeste 0 -- -- 67
2019-11-07 15:00:00 10.1 21 Oeste 46 Sudoeste 0.2 -- -- 72
2019-11-07 14:00:00 9.2 10 Sudoeste 39 Sudoeste 1.8 -- -- 90
2019-11-07 13:00:00 9.9 18 Oeste 42 Oeste 0.2 -- -- 81
2019-11-07 12:00:00 11.5 10 Oeste 28 Sudoeste 0.2 -- -- 75
2019-11-07 11:00:00 10.9 13 Oeste 28 Sudoeste 0 -- -- 73
2019-11-07 10:00:00 9.9 18 Oeste 35 Oeste 0 -- -- 78
2019-11-07 09:00:00 9.2 8 Oeste 20 Oeste 0.4 -- -- 89
2019-11-07 08:00:00 8.7 8 Noroeste 38 Oeste 1.6 -- -- 88
2019-11-07 07:00:00 9.8 12 Oeste 32 Oeste 0 -- -- 81
2019-11-07 06:00:00 9.6 12 Sudoeste 28 Oeste 2.2 -- -- 90
2019-11-07 05:00:00 9.8 12 Oeste 27 Sudoeste 0.8 -- -- 90
2019-11-07 04:00:00 10.5 9 Oeste 32 Sudoeste 1.2 -- -- 91
2019-11-07 03:00:00 11.2 18 Oeste 36 Oeste 0.6 -- -- 89
2019-11-07 02:00:00 11.4 9 Oeste 24 Sudoeste 1 -- -- 93
2019-11-07 01:00:00 11.7 10 Oeste 36 Oeste 0.6 -- -- 91
2019-11-07 00:00:00 12.6 14 Oeste 33 Sudoeste 0.2 -- -- 90
2019-11-06 23:00:00 13.1 18 Oeste 37 Oeste 1.8 -- -- 93
2019-11-06 22:00:00 14.1 17 Oeste 30 Sudoeste 1.2 -- -- 90
2019-11-06 21:00:00 15 13 Oeste 26 Oeste 0 -- -- 83
2019-11-06 20:00:00 13.7 10 Oeste 19 Oeste 0.6 -- -- 91
2019-11-06 19:00:00 13.2 5 Oeste 12 Sudoeste 0.2 -- -- 89
2019-11-06 18:00:00 13.9 4 Oeste 10 Oeste 0.4 -- -- 87
2019-11-06 17:00:00 15.4 0 Calma 5 Noroeste 0 -- -- 81
2019-11-06 16:00:00 16.5 4 Noroeste 10 Oeste 0 -- -- 68
2019-11-06 15:00:00 17.8 6 Sudoeste 16 Sudoeste 0 -- -- 60
2019-11-06 14:00:00 17 6 Oeste 18 Oeste 0 -- -- 65
2019-11-06 13:00:00 17.3 9 Oeste 30 Sudoeste 0 -- -- 63
2019-11-06 12:00:00 15.8 15 Sudoeste 32 Sudoeste 0 -- -- 66
2019-11-06 11:00:00 14.4 14 Sudoeste 25 Sudoeste 0 -- -- 72
2019-11-06 10:00:00 12.9 9 Oeste 23 Sudoeste 0 -- -- 79
2019-11-06 09:00:00 11.9 10 Oeste 22 Oeste 0 -- -- 83
2019-11-06 08:00:00 11 7 Oeste 20 Sudoeste 0.2 -- -- 88
2019-11-06 07:00:00 11.2 10 Sudoeste 19 Sudoeste 0.2 -- -- 89
2019-11-06 06:00:00 11.1 8 Oeste 20 Sudoeste 0 -- -- 90
2019-11-06 05:00:00 11.2 11 Oeste 20 Oeste 0.2 -- -- 92
2019-11-06 04:00:00 11.3 11 Oeste 21 Oeste 0.8 -- -- 95
2019-11-06 03:00:00 11.2 8 Oeste 26 Oeste 1.4 -- -- 95
2019-11-06 02:00:00 11.4 12 Oeste 22 Sudoeste 0.2 -- -- 94
2019-11-06 01:00:00 11.4 11 Sudoeste 25 Sudoeste 1.8 -- -- 95
2019-11-06 00:00:00 11.6 13 Sudoeste 24 Oeste 1.4 -- -- 95
2019-11-05 23:00:00 11.9 11 Oeste 25 Sudoeste 3 -- -- 95
2019-11-05 22:00:00 12 13 Sudoeste 28 Oeste 2.4 -- -- 95
2019-11-05 21:00:00 11.7 13 Sudoeste 32 Oeste 5 -- -- 94
2019-11-05 20:00:00 11.9 12 Oeste 36 Sudoeste 4.4 -- -- 94
2019-11-05 19:00:00 12.4 12 Oeste 23 Oeste 2.2 -- -- 92
2019-11-05 18:00:00 12.3 12 Sudoeste 32 Oeste 1.4 -- -- 88
2019-11-05 17:00:00 12.7 10 Oeste 44 Oeste 0.4 -- -- 87
2019-11-05 16:00:00 14 11 Oeste 28 Oeste 0.2 -- -- 84
2019-11-05 15:00:00 14 16 Oeste 36 Oeste 0 -- -- 85
2019-11-05 14:00:00 12.3 13 Sudoeste 24 Sudoeste 0.2 -- -- 94
2019-11-05 13:00:00 10.7 16 Oeste 54 Oeste 6.6 -- -- 92
2019-11-05 12:00:00 12.8 13 Oeste 30 Oeste 8.2 -- -- 92
2019-11-05 11:00:00 13.4 17 Oeste 37 Oeste 0 -- -- 87
2019-11-05 10:00:00 11.8 16 Oeste 31 Sudoeste 1.6 -- -- 91
2019-11-05 09:00:00 11.3 10 Sudoeste 43 Sudoeste 3.8 -- -- 88
2019-11-05 08:00:00 10.9 16 Sudoeste 39 Sudoeste 1.8 -- -- 89
2019-11-05 07:00:00 12.5 23 Sudoeste 46 Oeste 0.2 -- -- 74
2019-11-05 06:00:00 12.8 17 Sudoeste 44 Sudoeste 0 -- -- 66
2019-11-05 05:00:00 13.3 17 Sudoeste 39 Sudoeste 0 -- -- 62
2019-11-05 04:00:00 12.6 16 Sudoeste 38 Sudoeste 0 -- -- 63
2019-11-05 03:00:00 12.8 20 Sudoeste 44 Oeste 0.2 -- -- 62
2019-11-05 02:00:00 13.3 21 Sudoeste 41 Oeste 0 -- -- 60
2019-11-05 01:00:00 13.3 20 Sudoeste 42 Oeste 0 -- -- 60
2019-11-05 00:00:00 13.3 15 Oeste 35 Sudoeste 0 -- -- 58
2019-11-04 23:00:00 12.9 15 Sudoeste 28 Sudoeste 0 -- -- 59
2019-11-04 22:00:00 12.8 12 Sudoeste 31 Sudoeste 0 -- -- 59
2019-11-04 21:00:00 10.9 3 Sur 21 Oeste 0 -- -- 72
2019-11-04 20:00:00 12.7 10 Oeste 30 Oeste 0 -- -- 63
2019-11-04 19:00:00 13 15 Oeste 45 Oeste 0 -- -- 66
2019-11-04 18:00:00 13.9 10 Oeste 27 Oeste 0 -- -- 65
2019-11-04 17:00:00 14.8 11 Oeste 37 Sudoeste 0 -- -- 66
2019-11-04 16:00:00 14.6 13 Oeste 50 Sudoeste 0 -- -- 69
2019-11-04 15:00:00 14.8 15 Oeste 45 Oeste 0 -- -- 66
2019-11-04 14:00:00 14.7 20 Oeste 46 Noroeste 0 -- -- 68
2019-11-04 13:00:00 15 16 Oeste 40 Oeste 0 -- -- 75
2019-11-04 12:00:00 14.8 19 Oeste 37 Oeste 0 -- -- 79
2019-11-04 11:00:00 15.1 17 Oeste 40 Oeste 0 -- -- 80
2019-11-04 10:00:00 15.2 18 Oeste 42 Oeste 0 -- -- 80
2019-11-04 09:00:00 15.1 17 Oeste 41 Oeste 0 -- -- 88
2019-11-04 08:00:00 14.8 17 Oeste 36 Oeste 0.8 -- -- 91
2019-11-04 07:00:00 15.3 9 Sudoeste 30 Oeste 0 -- -- 90
2019-11-04 06:00:00 15.6 16 Oeste 53 Oeste 0 -- -- 84
2019-11-04 05:00:00 18.2 10 Oeste 35 Oeste 0 -- -- 65
2019-11-04 04:00:00 15.1 6 Oeste 19 Oeste 0 -- -- 80
2019-11-04 03:00:00 17 4 Sudoeste 19 Oeste 0 -- -- 73
2019-11-04 02:00:00 18 8 Oeste 17 Oeste 0 -- -- 73
2019-11-04 01:00:00 18.6 6 Sudoeste 27 Sudoeste 0 -- -- 72
2019-11-04 00:00:00 19.1 6 Oeste 31 Sudoeste 0 -- -- 70
2019-11-03 23:00:00 20.4 13 Oeste 40 Sudoeste 0 -- -- 64
2019-11-03 22:00:00 20.5 19 Oeste 40 Sudoeste 0 -- -- 63
2019-11-03 21:00:00 19.8 17 Sudoeste 41 Sudoeste 0 -- -- 66
2019-11-03 20:00:00 18.7 15 Sudoeste 35 Oeste 0 -- -- 69
2019-11-03 19:00:00 17.6 12 Oeste 31 Sudoeste 0.2 -- -- 73
2019-11-03 18:00:00 16.9 14 Sudoeste 36 Sudoeste 0 -- -- 74
2019-11-03 17:00:00 18 9 Oeste 27 Oeste 0 -- -- 62
2019-11-03 16:00:00 18.6 14 Sudoeste 42 Sudoeste 0 -- -- 57
2019-11-03 15:00:00 18 22 Oeste 48 Sudoeste 0 -- -- 57
2019-11-03 14:00:00 17 19 Oeste 46 Oeste 0 -- -- 59
2019-11-03 13:00:00 16.7 20 Oeste 51 Sudoeste 0 -- -- 60
2019-11-03 12:00:00 16.2 20 Oeste 46 Oeste 0.2 -- -- 62
2019-11-03 11:00:00 14.4 18 Sudoeste 38 Sudoeste 0 -- -- 68
2019-11-03 10:00:00 12.4 15 Sudoeste 33 Sudoeste 0 -- -- 77
2019-11-03 09:00:00 11.1 13 Sudoeste 37 Oeste 0.8 -- -- 86
2019-11-03 08:00:00 11.1 14 Sudoeste 46 Sudoeste 0.4 -- -- 84
2019-11-03 07:00:00 11 22 Oeste 50 Oeste 3.8 -- -- 89
2019-11-03 06:00:00 12 19 Oeste 53 Oeste 0.4 -- -- 81
2019-11-03 05:00:00 11.3 24 Oeste 60 Oeste 3.4 -- -- 86
2019-11-03 04:00:00 12.2 28 Oeste 79 Sudoeste 2.4 -- -- 86
2019-11-03 03:00:00 14.5 22 Oeste 74 Oeste 2 -- -- 75
2019-11-03 02:00:00 19.7 31 Oeste 69 Noroeste 0 -- -- 62
2019-11-03 01:00:00 18.6 12 Sudoeste 30 Sudoeste 0 -- -- 58
2019-11-03 00:00:00 13.8 4 Sudoeste 23 Sur 0 -- -- 88
2019-11-02 23:00:00 13.9 4 Sudoeste 6 Sudoeste 0 -- -- 90
2019-11-02 22:00:00 14.1 4 Sudoeste 8 Oeste 0 -- -- 87
2019-11-02 21:00:00 14 2 Oeste 5 Noroeste 0.2 -- -- 90
2019-11-02 20:00:00 14.5 0 Calma 4 Noroeste 0 -- -- 85
2019-11-02 19:00:00 15.6 3 Sur 9 Sudoeste 0 -- -- 75
2019-11-02 18:00:00 16.6 2 Sudoeste 31 Sudoeste 0 -- -- 72
2019-11-02 17:00:00 17 3 Sur 6 Sudoeste 0 -- -- 75
2019-11-02 16:00:00 17.8 0 Calma 12 Sudoeste 0 -- -- 77
2019-11-02 15:00:00 18.6 6 Oeste 15 Oeste 0 -- -- 69
2019-11-02 14:00:00 18.4 3 Noroeste 15 Oeste 0 -- -- 78
2019-11-02 13:00:00 18.7 7 Oeste 18 Oeste 0 -- -- 77
2019-11-02 12:00:00 19 8 Oeste 16 Oeste 0 -- -- 73
2019-11-02 11:00:00 16.9 4 Oeste 13 Oeste 0 -- -- 86
2019-11-02 10:00:00 16.1 3 Oeste 14 Oeste 0 -- -- 87
2019-11-02 09:00:00 16.1 9 Oeste 20 Oeste 0 -- -- 90
2019-11-02 08:00:00 15.7 7 Oeste 26 Sudoeste 0 -- -- 92
2019-11-02 07:00:00 15.8 9 Oeste 17 Oeste 0 -- -- 92
2019-11-02 06:00:00 15.7 3 Oeste 20 Oeste 0 -- -- 90
2019-11-02 05:00:00 16.8 6 Oeste 16 Oeste 0 -- -- 90
2019-11-02 04:00:00 16.9 9 Noroeste 15 Norte 0 -- -- 94
2019-11-02 03:00:00 16.6 7 Oeste 13 Oeste 0 -- -- 94
2019-11-02 02:00:00 17 6 Oeste 21 Sudoeste 0 -- -- 94
2019-11-02 01:00:00 17.1 10 Oeste 24 Sudoeste 0 -- -- 93
2019-11-02 00:00:00 18.6 7 Sudoeste 22 Oeste 0 -- -- 85
2019-11-01 23:00:00 16.9 3 Sudoeste 8 Sudoeste 0 -- -- 91
2019-11-01 22:00:00 17.3 3 Sudoeste 15 Oeste 0 -- -- 90
2019-11-01 21:00:00 16.9 2 Sudoeste 9 Oeste 0.2 -- -- 94
2019-11-01 20:00:00 17.1 0 Calma 8 Noroeste 0 -- -- 95
2019-11-01 19:00:00 17.9 2 Norte 11 Sudoeste 0 -- -- 90
2019-11-01 18:00:00 20 11 Oeste 24 Noroeste 0 -- -- 84
2019-11-01 17:00:00 23.6 3 Oeste 16 Sudoeste 0 -- -- 73
2019-11-01 16:00:00 24 8 Sudoeste 19 Sudoeste 0 -- -- 71
2019-11-01 15:00:00 22.8 9 Oeste 19 Oeste 0 -- -- 80
2019-11-01 14:00:00 19.4 9 Sudoeste 27 Sudoeste 2.6 -- -- 96
2019-11-01 13:00:00 19.7 14 Sudoeste 28 Sudoeste 1.6 -- -- 89
2019-11-01 12:00:00 20.3 3 Este 4 Este 0 -- -- 85
2019-11-01 11:00:00 19.5 0 Calma 4 Norte 0 -- -- 94
2019-11-01 10:00:00 17.9 0 Calma 6 Oeste 0 -- -- 96
2019-11-01 09:00:00 17.1 0 Calma 6 Sudoeste 0 -- -- 95
2019-11-01 08:00:00 17.7 5 Sudoeste 13 Oeste 0 -- -- 90
2019-11-01 07:00:00 19.8 8 Oeste 17 Oeste 0 -- -- 87
2019-11-01 06:00:00 18 6 Oeste 13 Oeste 0 -- -- 100
2019-11-01 05:00:00 16.4 5 Sudoeste 8 Sudoeste 0 -- -- 100
2019-11-01 04:00:00 16.3 0 Calma 5 Oeste 0 -- -- 100
2019-11-01 03:00:00 17.1 2 Noroeste 11 Oeste 0 -- -- 100
2019-11-01 02:00:00 16.5 2 Sudoeste 7 Sudoeste 0 -- -- 100
2019-11-01 01:00:00 17.3 3 Sudeste 14 Sudoeste 0.6 -- -- 99
2019-11-01 00:00:00 16.7 8 Oeste 17 Sudoeste 0.4 -- -- 100
2019-10-31 23:00:00 16.4 5 Oeste 8 Sudoeste 0 -- -- 100
2019-10-31 22:00:00 16.7 0 Calma 6 Sudoeste 0 -- -- 99
2019-10-31 21:00:00 16.9 0 Calma 5 Nordeste 0.2 -- -- 99
2019-10-31 20:00:00 17.1 2 Nordeste 10 Oeste 1.2 -- -- 97
2019-10-31 19:00:00 17.5 3 Oeste 11 Nordeste 0.2 -- -- 95
2019-10-31 18:00:00 17.8 6 Este 15 Este 0 -- -- 93
2019-10-31 17:00:00 18.1 9 Este 17 Este 0 -- -- 92
2019-10-31 16:00:00 18.8 7 Este 12 Nordeste 0 -- -- 89
2019-10-31 15:00:00 19.7 8 Nordeste 12 Nordeste 0 -- -- 85
2019-10-31 14:00:00 19.5 6 Este 10 Este 0 -- -- 87
2019-10-31 13:00:00 18.9 6 Nordeste 9 Norte 0 -- -- 87
2019-10-31 12:00:00 19 6 Este 11 Este 0 -- -- 91
2019-10-31 11:00:00 18.5 7 Norte 14 Sudoeste 0 -- -- 93
2019-10-31 10:00:00 17.3 7 Sudoeste 13 Sudoeste 0 -- -- 98
2019-10-31 09:00:00 16.2 7 Sudoeste 12 Sudoeste 0 -- -- 99
2019-10-31 08:00:00 16 8 Sudoeste 12 Sudoeste 0 -- -- 100
2019-10-31 07:00:00 16.2 4 Oeste 8 Oeste 0 -- -- 99
2019-10-31 06:00:00 16.8 4 Sudoeste 12 Oeste 0 -- -- 98
2019-10-31 05:00:00 16.7 4 Sudoeste 10 Sudoeste 0.4 -- -- 99
2019-10-31 04:00:00 16.8 4 Oeste 9 Oeste 0 -- -- 99
2019-10-31 03:00:00 16.9 3 Oeste 8 Oeste 0 -- -- 98
2019-10-31 02:00:00 17.1 5 Oeste 13 Oeste 0 -- -- 98
2019-10-31 01:00:00 17 4 Noroeste 15 Oeste 0 -- -- 99
2019-10-31 00:00:00 17.3 8 Noroeste 14 Noroeste 0 -- -- 99
2019-10-30 23:00:00 17.3 3 Sudoeste 10 Noroeste 0 -- -- 98
2019-10-30 22:00:00 17.6 6 Oeste 10 Oeste 0 -- -- 98
2019-10-30 21:00:00 17.2 3 Oeste 10 Sudoeste 0.2 -- -- 97
2019-10-30 20:00:00 16.9 5 Oeste 11 Sudoeste 2.8 -- -- 95
2019-10-30 19:00:00 17.8 8 Sudoeste 17 Noroeste 0.6 -- -- 87
2019-10-30 18:00:00 19.1 6 Noroeste 12 Noroeste 0 -- -- 86
2019-10-30 17:00:00 19.6 5 Oeste 8 Oeste 0 -- -- 87
2019-10-30 16:00:00 19.4 3 Sudeste 5 Este 0.2 -- -- 90
2019-10-30 15:00:00 20 2 Nordeste 7 Nordeste 0 -- -- 83
2019-10-30 14:00:00 20.7 3 Sudoeste 6 Sudoeste 0 -- -- 83
2019-10-30 13:00:00 19.4 5 Oeste 8 Sudoeste 0 -- -- 83
2019-10-30 12:00:00 17.6 3 Sudoeste 5 Sudoeste 0.2 -- -- 94
2019-10-30 11:00:00 17.2 0 Calma 13 Sudoeste 0 -- -- 88
2019-10-30 10:00:00 17 10 Oeste 19 Sudoeste 0 -- -- 87
2019-10-30 09:00:00 14.6 0 Calma 10 Sudoeste 0 -- -- 95
2019-10-30 08:00:00 13.9 4 Oeste 10 Sudoeste 0 -- -- 95
2019-10-30 07:00:00 15.4 7 Sudoeste 15 Sudoeste 0 -- -- 93
2019-10-30 06:00:00 14 5 Sudoeste 8 Sudoeste 0 -- -- 95
2019-10-30 05:00:00 15.4 5 Oeste 13 Sudoeste 0 -- -- 93
2019-10-30 04:00:00 14.7 8 Sudoeste 13 Oeste 0 -- -- 95
2019-10-30 03:00:00 14.3 9 Sudoeste 10 Sudoeste 0 -- -- 96
2019-10-30 02:00:00 14.4 7 Oeste 9 Sudoeste 0 -- -- 94
2019-10-30 01:00:00 15.3 6 Sudoeste 13 Oeste 0 -- -- 91
2019-10-30 00:00:00 15.7 8 Sudoeste 13 Sudoeste 0 -- -- 89
2019-10-29 23:00:00 15.6 2 Oeste 13 Oeste 0 -- -- 91
2019-10-29 22:00:00 15.4 7 Oeste 15 Sudoeste 0 -- -- 91
2019-10-29 21:00:00 16.5 6 Sur 25 Este 0 -- -- 83
2019-10-29 20:00:00 17.8 13 Este 24 Este 0 -- -- 82
2019-10-29 19:00:00 16.7 0 Calma 9 Este 0 -- -- 87
2019-10-29 18:00:00 18.2 4 Nordeste 7 Nordeste 0 -- -- 87
2019-10-29 17:00:00 19.6 5 Norte 11 Norte 0 -- -- 81
2019-10-29 16:00:00 20.3 5 Nordeste 17 Este 0 -- -- 85
2019-10-29 15:00:00 20.9 10 Este 18 Este 0 -- -- 76
2019-10-29 14:00:00 20.8 10 Este 18 Este 0 -- -- 80
2019-10-29 13:00:00 21.2 6 Este 11 Este 0 -- -- 78
2019-10-29 12:00:00 19.5 6 Norte 14 Norte 0 -- -- 80
2019-10-29 11:00:00 18.7 2 Norte 7 Nordeste 0 -- -- 89
2019-10-29 10:00:00 17.6 5 Sudoeste 11 Sudoeste 0 -- -- 92
2019-10-29 09:00:00 15.3 8 Sudoeste 12 Sudoeste 0 -- -- 94
2019-10-29 08:00:00 15.5 6 Oeste 14 Sudoeste 0 -- -- 89
2019-10-29 07:00:00 15.6 8 Oeste 14 Oeste 0 -- -- 88
2019-10-29 06:00:00 14.9 7 Sudoeste 12 Oeste 0 -- -- 88
2019-10-29 05:00:00 15 11 Oeste 18 Oeste 0 -- -- 89
2019-10-29 04:00:00 14.4 8 Sudoeste 15 Oeste 0 -- -- 94
2019-10-29 03:00:00 14.8 8 Sudoeste 15 Oeste 0 -- -- 94
2019-10-29 02:00:00 14.8 4 Oeste 11 Sudoeste 0 -- -- 96
2019-10-29 01:00:00 15.6 0 Calma 6 Sudoeste 0 -- -- 94
2019-10-29 00:00:00 16.7 4 Norte 12 Oeste 0 -- -- 92
2019-10-28 23:00:00 16.7 9 Oeste 13 Oeste 0 -- -- 87
2019-10-28 22:00:00 15.5 8 Oeste 14 Oeste 0 -- -- 95
2019-10-28 21:00:00 14.9 7 Sudoeste 9 Sudoeste 0 -- -- 96
2019-10-28 20:00:00 14.6 0 Calma 6 Sudoeste 0 -- -- 92
2019-10-28 19:00:00 15.3 0 Calma 4 Noroeste 0 -- -- 87
2019-10-28 18:00:00 17.4 0 Calma 6 Este 0 -- -- 83
2019-10-28 17:00:00 19.3 3 Este 7 Este 0 -- -- 75
2019-10-28 16:00:00 19.9 4 Nordeste 9 Nordeste 0 -- -- 72
2019-10-28 15:00:00 21 4 Este 11 Norte 0 -- -- 73
2019-10-28 14:00:00 19.4 7 Norte 13 Norte 0 -- -- 81
2019-10-28 13:00:00 19 10 Nordeste 13 Nordeste 0 -- -- 80
2019-10-28 12:00:00 21.4 3 Este 7 Este 0 -- -- 72
2019-10-28 11:00:00 18.1 0 Calma 6 Sudoeste 0 -- -- 81
2019-10-28 10:00:00 16.7 5 Sudoeste 11 Sudoeste 0 -- -- 84
2019-10-28 09:00:00 13.8 6 Sudoeste 12 Sudoeste 0 -- -- 90
2019-10-28 08:00:00 12.5 9 Sudoeste 12 Sudoeste 0 -- -- 93
2019-10-28 07:00:00 11.7 3 Sudoeste 11 Oeste 0 -- -- 93
2019-10-28 06:00:00 13.7 6 Sudoeste 15 Oeste 0 -- -- 90
2019-10-28 05:00:00 12.8 6 Sudoeste 12 Sudoeste 0 -- -- 93
2019-10-28 04:00:00 13 3 Oeste 12 Sudoeste 0 -- -- 94
2019-10-28 03:00:00 12.2 0 Calma 9 Sudoeste 0 -- -- 94
2019-10-28 02:00:00 12.9 0 Calma 9 Sudoeste 0 -- -- 90
2019-10-28 01:00:00 14.7 5 Sudoeste 16 Oeste 0 -- -- 84
2019-10-28 00:00:00 15.1 10 Oeste 18 Sudoeste 0 -- -- 87
2019-10-27 23:00:00 15 3 Oeste 13 Sudoeste 0 -- -- 90
2019-10-27 22:00:00 17.4 6 Nordeste 14 Nordeste 0 -- -- 79
2019-10-27 21:00:00 16.1 3 Noroeste 12 Sudoeste 0 -- -- 92
2019-10-27 20:00:00 16.6 5 Oeste 12 Sudoeste 0 -- -- 92
2019-10-27 19:00:00 17 7 Sudoeste 13 Sudoeste 0 -- -- 91
2019-10-27 18:00:00 17.6 0 Calma 11 Norte 0 -- -- 88
2019-10-27 17:00:00 18.2 7 Norte 10 Norte 0 -- -- 88
2019-10-27 16:00:00 19.1 4 Nordeste 10 Norte 0 -- -- 87
2019-10-27 15:00:00 19.5 3 Nordeste 10 Nordeste 0 -- -- 81
2019-10-27 14:00:00 20 5 Nordeste 8 Nordeste 0 -- -- 76
2019-10-27 13:00:00 19 4 Nordeste 10 Norte 0 -- -- 78
2019-10-27 12:00:00 19.6 8 Nordeste 10 Norte 0 -- -- 74
2019-10-27 11:00:00 18.8 2 Sur 10 Sudoeste 0 -- -- 77
2019-10-27 10:00:00 16.2 6 Sudoeste 12 Sudoeste 0 -- -- 84
2019-10-27 09:00:00 14.1 6 Sudoeste 10 Oeste 0 -- -- 91
2019-10-27 08:00:00 13.4 4 Sudoeste 13 Sudoeste 0 -- -- 88
2019-10-27 07:00:00 14.5 6 Sudoeste 12 Sudoeste 0 -- -- 83
2019-10-27 06:00:00 14.1 5 Sudoeste 13 Oeste 0 -- -- 85
2019-10-27 05:00:00 14.2 8 Sudoeste 12 Sudoeste 0 -- -- 86
2019-10-27 04:00:00 13.9 9 Sudoeste 14 Oeste 0 -- -- 89
2019-10-27 03:00:00 14.1 4 Sudoeste 13 Sudoeste 0 -- -- 89
2019-10-27 02:00:00 13.6 7 Sudoeste 14 Sudoeste 0 -- -- 91
2019-10-27 01:00:00 13 8 Sudoeste 11 Oeste 0 -- -- 93
2019-10-27 00:00:00 12.9 8 Oeste 13 Sudoeste 0 -- -- 95
2019-10-26 23:00:00 13 3 Sudoeste 13 Sudoeste 0 -- -- 94
2019-10-26 22:00:00 13 5 Sudoeste 9 Sudoeste 0 -- -- 95
2019-10-26 21:00:00 14.1 4 Oeste 9 Oeste 0 -- -- 95
2019-10-26 20:00:00 14.2 3 Sudoeste 5 Sudoeste 0 -- -- 88
2019-10-26 19:00:00 17.5 2 Noroeste 4 Nordeste 0 -- -- 77
2019-10-26 18:00:00 19.1 4 Nordeste 7 Nordeste 0 -- -- 83
2019-10-26 17:00:00 19.2 6 Nordeste 10 Norte 0 -- -- 82
2019-10-26 16:00:00 19.7 7 Nordeste 13 Nordeste 0 -- -- 67
2019-10-26 15:00:00 19.6 8 Nordeste 13 Nordeste 0 -- -- 76
2019-10-26 14:00:00 20.7 5 Nordeste 16 Nordeste 0 -- -- 65
2019-10-26 13:00:00 19.5 12 Nordeste 16 Nordeste 0 -- -- 73
2019-10-26 12:00:00 18.6 6 Sudoeste 12 Sur 0 -- -- 79
2019-10-26 11:00:00 15.1 7 Sudoeste 12 Sudoeste 0 -- -- 87
2019-10-26 10:00:00 12.8 4 Sudoeste 15 Sudoeste 0 -- -- 90
2019-10-26 09:00:00 10.4 10 Sudoeste 14 Sudoeste 0 -- -- 97
2019-10-26 08:00:00 10.5 8 Sudoeste 17 Sudoeste 0 -- -- 97
2019-10-26 07:00:00 9.8 4 Sudoeste 15 Oeste 0 -- -- 99
2019-10-26 06:00:00 9.2 5 Oeste 13 Oeste 0 -- -- 100
2019-10-26 05:00:00 9.3 0 Calma 13 Sudoeste 0 -- -- 99
2019-10-26 04:00:00 10.7 4 Sudoeste 13 Sudoeste 0 -- -- 99
2019-10-26 03:00:00 11.5 4 Oeste 14 Oeste 0 -- -- 100
2019-10-26 02:00:00 12.5 7 Sudoeste 14 Sudoeste 0 -- -- 99
2019-10-26 01:00:00 13.3 9 Oeste 15 Oeste 0 -- -- 99
2019-10-26 00:00:00 14 7 Oeste 12 Oeste 0 -- -- 99
2019-10-25 23:00:00 13.9 5 Oeste 9 Sudoeste 0 -- -- 97
2019-10-25 22:00:00 15.3 2 Sudoeste 4 Sudoeste 0 -- -- 96
2019-10-25 21:00:00 15.9 0 Calma 9 Este 0 -- -- 93
2019-10-25 20:00:00 17.1 4 Este 13 Este 0 -- -- 91
2019-10-25 19:00:00 17.4 6 Nordeste 12 Nordeste 0 -- -- 89
2019-10-25 18:00:00 17.8 5 Nordeste 14 Este 0 -- -- 88
2019-10-25 17:00:00 18 4 Este 14 Nordeste 0 -- -- 88
2019-10-25 16:00:00 18 7 Nordeste 13 Nordeste 0 -- -- 89
2019-10-25 15:00:00 18.4 6 Nordeste 11 Norte 0 -- -- 88
2019-10-25 14:00:00 18.2 6 Norte 10 Norte 0 -- -- 89
2019-10-25 13:00:00 18.1 6 Norte 14 Nordeste 0 -- -- 96
2019-10-25 12:00:00 16.5 2 Sudeste 8 Sudoeste 0 -- -- 100
2019-10-25 11:00:00 14.4 5 Sudoeste 9 Sudoeste 0 -- -- 100
2019-10-25 10:00:00 12.8 5 Sudoeste 8 Sudoeste 0 -- -- 100
2019-10-25 09:00:00 10.4 2 Sudoeste 5 Sudoeste 0 -- -- 100
2019-10-25 08:00:00 10.7 0 Calma 5 Sudoeste 0 -- -- 100
2019-10-25 07:00:00 10.1 4 Sudoeste 6 Sudoeste 0 -- -- 100
2019-10-25 06:00:00 10.6 4 Sudoeste 9 Sudoeste 0 -- -- 100
2019-10-25 05:00:00 11.2 5 Sudoeste 9 Sudoeste 0 -- -- 100
2019-10-25 04:00:00 11.7 4 Sudoeste 11 Sudoeste 0 -- -- 100
2019-10-25 03:00:00 12.3 6 Sudoeste 10 Sudoeste 0 -- -- 99
2019-10-25 02:00:00 12.8 7 Oeste 12 Sudoeste 0 -- -- 99
2019-10-25 01:00:00 13.2 4 Sudoeste 10 Sudoeste 0 -- -- 98
2019-10-25 00:00:00 13.7 3 Oeste 7 Oeste 0 -- -- 98
2019-10-24 23:00:00 15 4 Sudoeste 8 Sudoeste 0 -- -- 98
2019-10-24 22:00:00 15.1 8 Oeste 12 Oeste 0 -- -- 98
2019-10-24 21:00:00 14.7 0 Calma 4 Oeste 0 -- -- 97
2019-10-24 20:00:00 15.2 3 Noroeste 5 Sudoeste 0 -- -- 92
2019-10-24 19:00:00 17.5 2 Sudoeste 10 Oeste 0 -- -- 85
2019-10-24 18:00:00 18.6 3 Noroeste 14 Norte 0 -- -- 79
2019-10-24 17:00:00 18.8 5 Noroeste 17 Noroeste 0 -- -- 80
2019-10-24 16:00:00 19.2 4 Oeste 22 Oeste 0 -- -- 75
2019-10-24 15:00:00 19.2 11 Oeste 30 Oeste 0 -- -- 72
2019-10-24 14:00:00 19 10 Oeste 35 Oeste 0 -- -- 73
2019-10-24 13:00:00 18.8 15 Sudoeste 35 Sudoeste 0 -- -- 73
2019-10-24 12:00:00 17.6 16 Oeste 33 Oeste -- -- -- 78
2019-10-24 11:00:00 15.8 11 Oeste 24 Sudoeste -- -- -- 86
2019-10-24 10:00:00 15.8 13 Oeste 28 Sudoeste -- -- -- 76
2019-10-24 09:00:00 15.3 14 Sudoeste 32 Sudoeste -- -- -- 76
2019-10-24 08:00:00 14.7 15 Sudoeste 28 Sudoeste -- -- -- 72
2019-10-24 07:00:00 14 8 Oeste 22 Oeste -- -- -- 67
2019-10-24 06:00:00 13.8 10 Oeste 26 Sudoeste -- -- -- 68
2019-10-24 05:00:00 13.2 10 Oeste 22 Sudoeste -- -- -- 72
2019-10-24 04:00:00 12.5 10 Oeste 24 Oeste -- -- -- 77
2019-10-24 03:00:00 12.6 8 Oeste 19 Oeste -- -- -- 81
2019-10-24 02:00:00 12.5 11 Oeste 22 Oeste -- -- -- 85
2019-10-24 01:00:00 12.3 10 Oeste 24 Sudoeste -- -- -- 91
2019-10-24 00:00:00 12.3 13 Oeste 26 Oeste -- -- -- 92
2019-10-23 23:00:00 12.1 12 Oeste 23 Oeste -- -- -- 94
2019-10-23 22:00:00 11.7 11 Oeste 22 Oeste -- -- -- 96
2019-10-23 21:00:00 11.4 10 Oeste 21 Oeste -- -- -- 98
2019-10-23 20:00:00 11.3 11 Oeste 23 Sudoeste -- -- -- 98
2019-10-23 19:00:00 11.5 9 Oeste 30 Sudoeste -- -- -- 98
2019-10-23 18:00:00 11.9 13 Oeste 31 Oeste -- -- -- 99
2019-10-23 17:00:00 12 12 Oeste 27 Sudoeste -- -- -- 99
2019-10-23 16:00:00 12.2 14 Oeste 31 Oeste -- -- -- 100
2019-10-23 15:00:00 12.6 12 Oeste 32 Sudoeste -- -- -- 100
2019-10-23 14:00:00 12.9 12 Sudoeste 24 Oeste -- -- -- 100
2019-10-23 13:00:00 12.9 12 Oeste 42 Sudoeste -- -- -- 100
2019-10-23 12:00:00 12.5 13 Sudoeste 24 Oeste -- -- -- 100
2019-10-23 11:00:00 12.4 11 Sudoeste 22 Oeste -- -- -- 100
2019-10-23 10:00:00 12.2 8 Oeste 22 Sudoeste -- -- -- 99
2019-10-23 09:00:00 12.4 5 Sudoeste 15 Sudoeste -- -- -- 99
2019-10-23 08:00:00 12.5 5 Sudoeste 14 Sudoeste -- -- -- 99
2019-10-23 07:00:00 12.5 2 Sur 12 Sudoeste -- -- -- 98
2019-10-23 06:00:00 13.4 5 Oeste 27 Nordeste -- -- -- 98
2019-10-23 05:00:00 12.8 5 Sudoeste 12 Sur -- -- -- 98
2019-10-23 04:00:00 12.9 5 Sudoeste 24 Nordeste -- -- -- 96
2019-10-23 03:00:00 12.9 5 Sur 26 Nordeste -- -- -- 93
2019-10-23 02:00:00 14.7 14 Nordeste 33 Nordeste -- -- -- 86
2019-10-23 01:00:00 15.1 10 Nordeste 39 Norte -- -- -- 84
2019-10-23 00:00:00 15 15 Nordeste 33 Nordeste -- -- -- 86
2019-10-22 23:00:00 12 5 Sudoeste 17 Oeste -- -- -- 99
2019-10-22 22:00:00 11.9 7 Oeste 14 Sudoeste -- -- -- 99
2019-10-22 21:00:00 12.1 6 Oeste 12 Sudoeste -- -- -- 98
2019-10-22 20:00:00 12.5 4 Oeste 8 Sudoeste -- -- -- 97
2019-10-22 19:00:00 13 5 Sudeste 18 Nordeste -- -- -- 94
2019-10-22 18:00:00 14.2 6 Sudoeste 12 Sudoeste -- -- -- 89
2019-10-22 17:00:00 14.4 6 Sudoeste 12 Noroeste -- -- -- 88
2019-10-22 16:00:00 15.4 4 Sur 6 Sur -- -- -- 84
2019-10-22 15:00:00 14.3 2 Norte 12 Norte -- -- -- 85
2019-10-22 14:00:00 15.3 5 Nordeste 11 Nordeste -- -- -- 81
2019-10-22 13:00:00 14.8 4 Norte 9 Nordeste -- -- -- 82
2019-10-22 12:00:00 13.9 4 Nordeste 6 Norte -- -- -- 88
2019-10-22 11:00:00 11.8 3 Sur 13 Sudoeste -- -- -- 95
2019-10-22 10:00:00 9.6 10 Sudoeste 17 Oeste -- -- -- 97
2019-10-22 09:00:00 8.2 9 Sudoeste 16 Oeste -- -- -- 97
2019-10-22 08:00:00 8.3 10 Sudoeste 17 Oeste -- -- -- 97
2019-10-22 07:00:00 8.2 9 Sudoeste 15 Sudoeste -- -- -- 97
2019-10-22 06:00:00 8.5 8 Oeste 18 Oeste -- -- -- 97
2019-10-22 05:00:00 8.3 10 Sudoeste 17 Oeste -- -- -- 97
2019-10-22 04:00:00 8.4 9 Sudoeste 14 Oeste -- -- -- 97
2019-10-22 03:00:00 8.4 9 Sudoeste 16 Oeste -- -- -- 96
2019-10-22 02:00:00 8.6 9 Sudoeste 17 Sudoeste -- -- -- 96
2019-10-22 01:00:00 9.1 11 Sudoeste 16 Oeste -- -- -- 96
2019-10-22 00:00:00 9.2 8 Sudoeste 17 Oeste -- -- -- 96
2019-10-21 23:00:00 9.2 9 Sudoeste 15 Sudoeste -- -- -- 96
2019-10-21 22:00:00 9.8 9 Sudoeste 17 Sudoeste -- -- -- 95
2019-10-21 21:00:00 10.6 9 Oeste 15 Oeste -- -- -- 96
2019-10-21 20:00:00 11.3 7 Sudoeste 12 Sudoeste -- -- -- 94
2019-10-21 19:00:00 12.4 2 Sudoeste 5 Oeste -- -- -- 90
2019-10-21 18:00:00 14 0 Calma 4 Sur -- -- -- 86
2019-10-21 17:00:00 14.3 0 Calma 8 Sudoeste -- -- -- 79
2019-10-21 16:00:00 14.7 5 Nordeste 11 Nordeste -- -- -- 78
2019-10-21 15:00:00 14.4 4 Sudoeste 9 Sudoeste -- -- -- 79
2019-10-21 14:00:00 14.7 0 Calma 11 Sudoeste -- -- -- 76
2019-10-21 13:00:00 14.1 6 Sur 9 Sur -- -- -- 81
2019-10-21 12:00:00 13.5 5 Norte 13 Norte -- -- -- 80
2019-10-21 11:00:00 13.2 5 Norte 10 Oeste 0 -- -- 83
2019-10-21 10:00:00 11.8 6 Oeste 10 Sudoeste 0 -- -- 89
2019-10-21 09:00:00 11.1 8 Oeste 18 Sudoeste 0 -- -- 88
2019-10-21 08:00:00 11.1 8 Sudoeste 15 Oeste 0 -- -- 90
2019-10-21 07:00:00 10.7 7 Sudoeste 20 Oeste 0 -- -- 91
2019-10-21 06:00:00 11.3 10 Oeste 18 Oeste 0 -- -- 90
2019-10-21 05:00:00 10.9 8 Oeste 15 Oeste 0 -- -- 93
2019-10-21 04:00:00 10.9 9 Sudoeste 17 Sudoeste 0 -- -- 93
2019-10-21 03:00:00 11.1 10 Oeste 17 Oeste 0 -- -- 93
2019-10-21 02:00:00 10.7 9 Oeste 18 Oeste 0 -- -- 96
2019-10-21 01:00:00 10.8 8 Oeste 13 Sudoeste 0 -- -- 95
2019-10-21 00:00:00 11.1 5 Oeste 14 Oeste 0 -- -- 93
2019-10-20 23:00:00 11.4 8 Oeste 19 Oeste 0 -- -- 92
2019-10-20 22:00:00 11.1 9 Oeste 19 Sudoeste 0 -- -- 95
2019-10-20 21:00:00 11.5 8 Oeste 19 Oeste 0 -- -- 92
2019-10-20 20:00:00 11.9 10 Oeste 18 Sudoeste 0 -- -- 90
2019-10-20 19:00:00 12.4 8 Sudoeste 24 Sudoeste 0 -- -- 87
2019-10-20 18:00:00 13.8 7 Oeste 15 Oeste 0 -- -- 90
2019-10-20 17:00:00 13.8 7 Oeste 13 Oeste 0 -- -- 88
2019-10-20 16:00:00 13.4 9 Oeste 18 Sudoeste 0 -- -- 91
2019-10-20 15:00:00 12.6 9 Sudoeste 17 Sudoeste 0 -- -- 96
2019-10-20 14:00:00 12.5 9 Oeste 14 Oeste 0 -- -- 96
2019-10-20 13:00:00 11.3 8 Sudoeste 17 Sudoeste 0 -- -- 96
2019-10-20 12:00:00 11.4 10 Oeste 20 Oeste 0 -- -- 96
2019-10-20 11:00:00 11 10 Oeste 18 Sudoeste 0 -- -- 95
2019-10-20 10:00:00 10.3 9 Oeste 20 Oeste 0 -- -- 97
2019-10-20 09:00:00 10.5 11 Oeste 19 Oeste 0 -- -- 98
2019-10-20 08:00:00 10.5 9 Sudoeste 22 Sudoeste 0 -- -- 99
2019-10-20 07:00:00 10.5 9 Sudoeste 15 Sudoeste 0 -- -- 100
2019-10-20 06:00:00 10.7 10 Sudoeste 22 Sudoeste 0 -- -- 100
2019-10-20 05:00:00 11.1 6 Oeste 15 Oeste 0 -- -- 100
2019-10-20 04:00:00 11.4 8 Sudoeste 18 Sudoeste 0 -- -- 100
2019-10-20 03:00:00 11.8 9 Oeste 15 Sudoeste 0 -- -- 100
2019-10-20 02:00:00 12.3 7 Sudoeste 17 Oeste 0 -- -- 100
2019-10-20 01:00:00 11.9 4 Oeste 15 Noroeste 0 -- -- 100
2019-10-20 00:00:00 11.9 4 Oeste 10 Sudoeste 0 -- -- 100
2019-10-19 23:00:00 11.8 2 Sudoeste 8 Sudoeste 0 -- -- 100
2019-10-19 22:00:00 11.9 2 Oeste 7 Sudoeste 0 -- -- 100
2019-10-19 21:00:00 12.2 8 Nordeste 20 Nordeste 0 -- -- 99
2019-10-19 20:00:00 12.8 3 Oeste 8 Sudoeste 0 -- -- 100
2019-10-19 19:00:00 13.1 3 Noroeste 5 Oeste 0 -- -- 99
2019-10-19 18:00:00 13.3 2 Oeste 8 Oeste 0 -- -- 99
2019-10-19 17:00:00 13.5 2 Nordeste 9 Nordeste 0 -- -- 99
2019-10-19 16:00:00 14.1 5 Sudoeste 8 Sudoeste 0 -- -- 99
2019-10-19 15:00:00 14.3 2 Sudoeste 6 Oeste 0 -- -- 100
2019-10-19 14:00:00 14.2 4 Oeste 8 Sudoeste 0 -- -- 100
2019-10-19 13:00:00 14.1 4 Oeste 8 Sudoeste 0 -- -- 100
2019-10-19 12:00:00 13.9 3 Oeste 6 Sudoeste 0 -- -- 100
2019-10-19 11:00:00 13.7 3 Sudoeste 5 Sudoeste 0 -- -- 100
2019-10-19 10:00:00 13.5 3 Sudoeste 8 Sudoeste 0 -- -- 100
2019-10-19 09:00:00 13.4 4 Oeste 8 Sudoeste 0 -- -- 100
2019-10-19 08:00:00 13.5 0 Calma 12 Oeste 0 -- -- 99
2019-10-19 07:00:00 13.8 6 Oeste 12 Oeste 0 -- -- 99
2019-10-19 06:00:00 13.5 5 Sudoeste 13 Sudoeste 0 -- -- 99
2019-10-19 05:00:00 13.5 6 Oeste 11 Sudoeste 0 -- -- 98
2019-10-19 04:00:00 13.6 5 Sudoeste 11 Oeste 0 -- -- 98
2019-10-19 03:00:00 13.7 6 Sudoeste 14 Oeste 0 -- -- 97
2019-10-19 02:00:00 13.6 7 Oeste 13 Oeste 0 -- -- 96
2019-10-19 01:00:00 13.8 6 Sudoeste 14 Oeste 0 -- -- 94
2019-10-19 00:00:00 14.3 9 Sudoeste 13 Sudoeste 0 -- -- 92
2019-10-18 23:00:00 14.4 5 Sudoeste 13 Sudoeste 0 -- -- 92
2019-10-18 22:00:00 14.6 6 Sudoeste 14 Sudoeste 0 -- -- 94
2019-10-18 21:00:00 14.8 0 Calma 5 Oeste 0 -- -- 92
2019-10-18 20:00:00 15.7 3 Sudoeste 9 Este 0 -- -- 88
2019-10-18 19:00:00 16.9 5 Este 10 Este 0 -- -- 80
2019-10-18 18:00:00 17.1 2 Este 12 Este 0 -- -- 82
2019-10-18 17:00:00 17.3 3 Nordeste 11 Este 0 -- -- 75
2019-10-18 16:00:00 17.6 4 Nordeste 10 Este 0 -- -- 73
2019-10-18 15:00:00 17.9 4 Este 7 Este 0 -- -- 71
2019-10-18 14:00:00 18 3 Norte 8 Nordeste 0 -- -- 69
2019-10-18 13:00:00 18 4 Noroeste 9 Oeste 0 -- -- 68
2019-10-18 12:00:00 17.1 2 Sur 6 Sudoeste 0 -- -- 78
2019-10-18 11:00:00 14.8 5 Sudoeste 10 Oeste 0 -- -- 86
2019-10-18 10:00:00 13.7 6 Sudoeste 12 Oeste 0 -- -- 87
2019-10-18 09:00:00 13.8 6 Oeste 14 Sudoeste 0 -- -- 86
2019-10-18 08:00:00 13.8 7 Oeste 12 Oeste 0 -- -- 89
2019-10-18 07:00:00 13.6 6 Oeste 9 Oeste 0 -- -- 92
2019-10-18 06:00:00 13.8 3 Oeste 6 Oeste 0 -- -- 92
2019-10-18 05:00:00 14.9 5 Oeste 10 Sudoeste 0 -- -- 89
2019-10-18 04:00:00 15.5 4 Oeste 11 Sudoeste 0 -- -- 89
2019-10-18 03:00:00 15.1 6 Oeste 13 Sudoeste 0 -- -- 93
2019-10-18 02:00:00 14.9 7 Sudoeste 13 Oeste 0 -- -- 94
2019-10-18 01:00:00 15 6 Sudoeste 10 Oeste 0 -- -- 96
2019-10-18 00:00:00 14.8 3 Sudoeste 7 Sudoeste 0 -- -- 94
2019-10-17 23:00:00 15.5 5 Sudoeste 7 Sudoeste 0 -- -- 94
2019-10-17 22:00:00 15.9 4 Sudoeste 7 Sudoeste 0 -- -- 94
2019-10-17 21:00:00 16.1 0 Calma 3 Noroeste 0 -- -- 93
2019-10-17 20:00:00 16.5 0 Calma 4 Noroeste -- -- -- 91
2019-10-17 19:00:00 17.1 2 Norte 6 Nordeste 0 -- -- 86
2019-10-17 18:00:00 17.2 5 Nordeste 13 Nordeste 0 -- -- 85
2019-10-17 17:00:00 18.1 4 Norte 10 Nordeste 0 -- -- 81
2019-10-17 16:00:00 17.7 3 Noroeste 12 Norte 0 -- -- 81
2019-10-17 15:00:00 18.1 5 Nordeste 13 Nordeste 0 -- -- 81
2019-10-17 14:00:00 18.2 4 Sur 16 Oeste 0 -- -- 86
2019-10-17 13:00:00 15.8 10 Sudoeste 23 Oeste 0 -- -- 95
2019-10-17 12:00:00 17.4 5 Oeste 13 Oeste 0 -- -- 98
2019-10-17 11:00:00 16.8 4 Sudoeste 8 Sudoeste 0 -- -- 100
2019-10-17 10:00:00 15.2 2 Oeste 6 Sudoeste 0 -- -- 100
2019-10-17 09:00:00 14.5 3 Oeste 6 Sudeste 0 -- -- 100
2019-10-17 08:00:00 15 5 Sudoeste 11 Sudoeste 0 -- -- 100
2019-10-17 07:00:00 14.8 8 Sudoeste 12 Oeste 0 -- -- 100
2019-10-17 06:00:00 14.7 6 Oeste 12 Sudoeste 0 -- -- 100
2019-10-17 05:00:00 14.7 4 Oeste 10 Oeste 0 -- -- 100
2019-10-17 04:00:00 15 5 Oeste 10 Oeste 0 -- -- 100
2019-10-17 03:00:00 15.2 6 Oeste 9 Oeste 0 -- -- 100
2019-10-17 02:00:00 15.3 3 Sudoeste 9 Sudoeste 0 -- -- 100
2019-10-17 01:00:00 15.5 6 Oeste 10 Oeste 0 -- -- 100
2019-10-17 00:00:00 15.7 5 Oeste 12 Sudoeste 0 -- -- 99
2019-10-16 23:00:00 15.6 7 Oeste 10 Oeste 0 -- -- 99
2019-10-16 22:00:00 15.6 4 Sudoeste 8 Sudoeste 0 -- -- 99
2019-10-16 21:00:00 16 3 Oeste 8 Sudoeste 0 -- -- 98
2019-10-16 20:00:00 16.3 2 Oeste 13 Norte 0 -- -- 96
2019-10-16 19:00:00 16.7 3 Nordeste 8 Oeste 0 -- -- 96
2019-10-16 18:00:00 17.5 6 Oeste 12 Sudoeste 0 -- -- 92
2019-10-16 17:00:00 18.9 3 Norte 13 Nordeste 0 -- -- 81
2019-10-16 16:00:00 19.8 7 Nordeste 17 Norte 0 -- -- 80
2019-10-16 15:00:00 20.8 11 Norte 18 Norte 0 -- -- 68
2019-10-16 14:00:00 20.2 3 Nordeste 14 Noroeste 0 -- -- 71
2019-10-16 13:00:00 20.4 6 Norte 14 Norte 0 -- -- 70
2019-10-16 12:00:00 19.8 6 Norte 23 Norte 0 -- -- 69
2019-10-16 11:00:00 16.9 12 Norte 19 Norte 0 -- -- 87
2019-10-16 10:00:00 14 3 Sudoeste 9 Sudoeste 0 -- -- 98
2019-10-16 09:00:00 13.7 3 Oeste 11 Oeste 0 -- -- 97
2019-10-16 08:00:00 13.4 5 Oeste 13 Sur 0 -- -- 94
2019-10-16 07:00:00 13.3 0 Calma 18 Sudoeste 0 -- -- 92
2019-10-16 06:00:00 13.5 6 Oeste 18 Sudoeste 0 -- -- 87
2019-10-16 05:00:00 13.5 4 Oeste 13 Sudoeste 0 -- -- 85
2019-10-16 04:00:00 12.7 9 Sudoeste 15 Sudoeste 0 -- -- 86
2019-10-16 03:00:00 12.8 9 Oeste 15 Sudoeste 0 -- -- 88
2019-10-16 02:00:00 12.6 8 Sudoeste 12 Sudoeste 0 -- -- 89
2019-10-16 01:00:00 13.2 6 Sudoeste 14 Sudoeste 0 -- -- 89
2019-10-16 00:00:00 13.9 6 Sudoeste 14 Noroeste 0 -- -- 88
2019-10-15 23:00:00 14.4 4 Noroeste 15 Oeste 0 -- -- 87
2019-10-15 22:00:00 14.1 3 Sudoeste 8 Oeste 0 -- -- 92
2019-10-15 21:00:00 14.8 6 Oeste 13 Oeste 0 -- -- 88
2019-10-15 20:00:00 16.3 5 Oeste 12 Este 0 -- -- 76
2019-10-15 19:00:00 17.7 6 Este 15 Nordeste 0 -- -- 67
2019-10-15 18:00:00 18.8 8 Este 18 Este 0 -- -- 61
2019-10-15 17:00:00 20.3 6 Este 12 Este 0 -- -- 58
2019-10-15 16:00:00 19.2 0 Calma 11 Noroeste 0 -- -- 62
2019-10-15 15:00:00 19.2 5 Noroeste 14 Noroeste 0 -- -- 56
2019-10-15 14:00:00 20.8 6 Oeste 14 Oeste 0 -- -- 44
2019-10-15 13:00:00 19.7 8 Sudoeste 26 Sudoeste 0 -- -- 44
2019-10-15 12:00:00 18.9 6 Oeste 14 Oeste 0 -- -- 50
2019-10-15 11:00:00 16.3 7 Sudoeste 19 Sudoeste 0 -- -- 53
2019-10-15 10:00:00 14.2 8 Oeste 19 Oeste 0 -- -- 60
2019-10-15 09:00:00 12.9 9 Oeste 18 Oeste 0 -- -- 63
2019-10-15 08:00:00 13 9 Oeste 21 Oeste 0 -- -- 62
2019-10-15 07:00:00 13.1 8 Oeste 18 Oeste 0 -- -- 62
2019-10-15 06:00:00 13.2 8 Oeste 21 Sudoeste 0 -- -- 63
2019-10-15 05:00:00 13.4 11 Oeste 27 Oeste 0 -- -- 63
2019-10-15 04:00:00 13.5 11 Oeste 20 Sudoeste 0 -- -- 65
2019-10-15 03:00:00 12.8 10 Sudoeste 23 Sudoeste 0 -- -- 65
2019-10-15 02:00:00 12.7 10 Oeste 24 Sudoeste 0 -- -- 66
2019-10-15 01:00:00 12.8 9 Sudoeste 28 Sudoeste 0 -- -- 68
2019-10-15 00:00:00 12.5 12 Sudoeste 28 Sudoeste 0 -- -- 70
2019-10-14 23:00:00 12.6 15 Sudoeste 31 Sudoeste 0 -- -- 70
2019-10-14 22:00:00 11.5 8 Oeste 17 Oeste 0 -- -- 78
2019-10-14 21:00:00 11.5 6 Oeste 21 Oeste 0 -- -- 87
2019-10-14 20:00:00 12.8 14 Oeste 35 Oeste 0 -- -- 85
2019-10-14 19:00:00 13.2 5 Oeste 16 Oeste 0 -- -- 86
2019-10-14 18:00:00 13.3 10 Sudoeste 32 Sudoeste 0 -- -- 82
2019-10-14 17:00:00 15.1 18 Oeste 35 Oeste 0 -- -- 78
2019-10-14 16:00:00 16.2 3 Noroeste 9 Norte 0 -- -- 87
2019-10-14 15:00:00 16.6 4 Norte 10 Sudoeste 0 -- -- 86
2019-10-14 14:00:00 16.2 5 Sudoeste 12 Oeste 0 -- -- 89
2019-10-14 13:00:00 15.8 5 Nordeste 15 Oeste 0 -- -- 93
2019-10-14 12:00:00 13.7 4 Oeste 7 Sudoeste 0 -- -- 100
2019-10-14 11:00:00 12.4 4 Sudoeste 8 Sudoeste 0 -- -- 100
2019-10-14 10:00:00 12.7 3 Sur 6 Sudoeste 0 -- -- 99
2019-10-14 09:00:00 12.8 4 Oeste 9 Oeste 0 -- -- 98
2019-10-14 08:00:00 13.1 2 Oeste 5 Sudeste 0 -- -- 97
2019-10-14 07:00:00 13.5 3 Oeste 8 Oeste 0 -- -- 94
2019-10-14 06:00:00 14.2 5 Sudoeste 23 Sudoeste 0 -- -- 92
2019-10-14 05:00:00 14.2 13 Sudoeste 23 Oeste 0 -- -- 98
2019-10-14 04:00:00 14.5 11 Oeste 26 Oeste 0 -- -- 100
2019-10-14 03:00:00 15.7 6 Oeste 16 Sudoeste 0 -- -- 100
2019-10-14 02:00:00 15.7 8 Oeste 13 Oeste 0 -- -- 100
2019-10-14 01:00:00 15.6 0 Calma 9 Nordeste 0 -- -- 100
2019-10-14 00:00:00 15.3 4 Este 6 Este 0 -- -- 100